Time;durP1;ratioP1;P1;durP2;ratioP2;P2;SDS_P1;SDS_P2;PMS_P1;PMS_P2;Temp;Humidity;BMP_temperature;BMP_pressure;BME280_temperature;BME280_humidity;BME280_pressure;Samples;Min_cycle;Max_cycle;Signal;HPM_P1;HPM_P2
2022/04/04 00:00:13;;;;;;;13.07;6.32;;;9.20;99.90;;;;;;4885723;29;20059;-84
2022/04/04 00:02:40;;;;;;;16.13;6.65;;;9.20;99.90;;;;;;4869948;29;20033;-84
2022/04/04 00:05:07;;;;;;;9.50;5.18;;;9.20;99.90;;;;;;4869660;29;20025;-84
2022/04/04 00:07:34;;;;;;;9.70;5.40;;;9.10;99.90;;;;;;4869551;29;20414;-84
2022/04/04 00:10:01;;;;;;;12.50;5.63;;;9.10;99.90;;;;;;4869708;29;20021;-84
2022/04/04 00:12:34;;;;;;;10.48;5.75;;;9.10;99.90;;;;;;4869739;29;20566;-84
2022/04/04 00:15:00;;;;;;;16.05;5.30;;;9.10;99.90;;;;;;4885344;29;20040;-85
2022/04/04 00:17:27;;;;;;;8.20;5.03;;;9.10;99.90;;;;;;4876215;29;20071;-84
2022/04/04 00:19:53;;;;;;;8.60;5.55;;;9.10;99.90;;;;;;4888438;29;20123;-84
2022/04/04 00:22:20;;;;;;;12.90;5.57;;;9.10;99.90;;;;;;4888191;29;20486;-84
2022/04/04 00:24:46;;;;;;;12.00;6.13;;;9.20;99.90;;;;;;4904095;29;20040;-84
2022/04/04 00:27:13;;;;;;;12.80;5.63;;;9.20;99.90;;;;;;4888038;29;20040;-84
2022/04/04 00:29:39;;;;;;;14.30;5.90;;;9.10;99.90;;;;;;4887944;29;20039;-84
2022/04/04 00:32:07;;;;;;;13.75;5.82;;;9.10;99.90;;;;;;4888370;29;20486;-84
2022/04/04 00:34:37;;;;;;;8.70;4.95;;;9.10;99.90;;;;;;4903336;29;20032;-84
2022/04/04 00:37:04;;;;;;;11.45;4.95;;;9.10;99.90;;;;;;4903663;29;20047;-84
2022/04/04 00:39:31;;;;;;;14.10;6.28;;;9.10;99.90;;;;;;4888231;29;20048;-84
2022/04/04 00:41:57;;;;;;;10.63;5.13;;;9.10;99.90;;;;;;4887958;29;20036;-84
2022/04/04 00:44:25;;;;;;;8.77;4.82;;;9.10;99.90;;;;;;4887735;29;20028;-84
2022/04/04 00:46:52;;;;;;;7.35;4.65;;;9.10;99.90;;;;;;4903271;29;20103;-84
2022/04/04 00:49:18;;;;;;;10.95;4.93;;;9.10;99.90;;;;;;4887724;29;20442;-85
2022/04/04 00:51:45;;;;;;;9.93;4.60;;;9.10;99.90;;;;;;4887678;29;20036;-84
2022/04/04 00:54:13;;;;;;;8.60;4.65;;;9.10;99.90;;;;;;4887733;29;20028;-85
2022/04/04 00:56:40;;;;;;;14.80;6.03;;;9.20;99.90;;;;;;4903046;29;20068;-84
2022/04/04 00:59:12;;;;;;;8.73;5.45;;;9.10;99.90;;;;;;4887747;29;20033;-84
2022/04/04 01:01:39;;;;;;;7.63;4.30;;;9.20;99.90;;;;;;4902933;29;20115;-82
2022/04/04 01:04:08;;;;;;;11.80;5.00;;;9.20;99.90;;;;;;4903012;29;20055;-84
2022/04/04 01:06:39;;;;;;;12.45;5.68;;;9.10;99.90;;;;;;4902961;29;20028;-84
2022/04/04 01:09:05;;;;;;;16.98;5.82;;;9.20;99.90;;;;;;4887622;29;20352;-85
2022/04/04 01:11:32;;;;;;;9.13;4.40;;;9.10;99.90;;;;;;4887348;29;20020;-84
2022/04/04 01:13:58;;;;;;;10.55;4.90;;;9.10;99.90;;;;;;4887322;29;20064;-85
2022/04/04 01:16:28;;;;;;;17.30;4.63;;;9.10;99.90;;;;;;4887375;29;20075;-85
2022/04/04 01:18:55;;;;;;;14.70;4.50;;;9.10;99.90;;;;;;4887211;29;20048;-85
2022/04/04 01:21:21;;;;;;;7.85;4.50;;;9.10;99.90;;;;;;4902561;29;20118;-84
2022/04/04 01:23:54;;;;;;;7.70;4.00;;;9.10;99.90;;;;;;4902665;29;20032;-84
2022/04/04 01:26:21;;;;;;;9.70;4.03;;;9.10;99.90;;;;;;4887023;29;20024;-84
2022/04/04 01:28:51;;;;;;;8.45;4.32;;;9.20;99.90;;;;;;4902614;29;20035;-84
2022/04/04 01:31:20;;;;;;;11.95;4.68;;;9.10;99.90;;;;;;4887009;29;20079;-84
2022/04/04 01:33:47;;;;;;;7.60;4.30;;;9.20;99.90;;;;;;4887050;29;20036;-84
2022/04/04 01:36:14;;;;;;;10.82;4.82;;;9.10;99.90;;;;;;4902445;29;20020;-84
2022/04/04 01:38:40;;;;;;;10.48;4.50;;;9.10;99.90;;;;;;4886962;29;20038;-84
2022/04/04 01:41:07;;;;;;;11.35;4.55;;;9.10;99.90;;;;;;4886864;29;20040;-84
2022/04/04 01:43:33;;;;;;;8.98;4.18;;;9.10;99.90;;;;;;4886701;29;20101;-84
2022/04/04 01:48:50;;;;;;;7.28;4.18;;;9.10;99.90;;;;;;4902124;29;20557;-83
2022/04/04 01:51:18;;;;;;;8.30;3.60;;;9.10;99.90;;;;;;4886374;29;20055;-83
2022/04/04 01:53:45;;;;;;;11.00;3.95;;;9.10;99.90;;;;;;4886475;29;20024;-85
2022/04/04 01:56:12;;;;;;;8.48;3.53;;;9.10;99.90;;;;;;4886452;29;20028;-84
2022/04/04 01:58:40;;;;;;;7.97;3.67;;;9.10;99.90;;;;;;4886675;29;20036;-84
2022/04/04 02:01:11;;;;;;;6.43;3.17;;;9.10;99.90;;;;;;4886277;29;20038;-84
2022/04/04 02:03:38;;;;;;;16.48;3.65;;;9.10;99.90;;;;;;4886328;29;20028;-83
2022/04/04 02:06:05;;;;;;;7.47;3.35;;;9.10;99.90;;;;;;4886458;29;20431;-84
2022/04/04 02:08:33;;;;;;;6.35;3.40;;;9.10;99.90;;;;;;4901926;29;20478;-84
2022/04/04 02:11:02;;;;;;;5.90;2.80;;;9.10;99.90;;;;;;4886462;29;20024;-84
2022/04/04 02:13:29;;;;;;;6.18;3.03;;;9.20;99.90;;;;;;4901749;29;20039;-84
2022/04/04 02:16:01;;;;;;;5.53;2.90;;;9.20;99.90;;;;;;4901800;29;20054;-84
2022/04/04 02:18:32;;;;;;;6.80;3.17;;;9.20;99.90;;;;;;4887492;29;20499;-84
2022/04/04 02:20:59;;;;;;;6.00;3.22;;;9.20;99.90;;;;;;4867509;29;20487;-84
2022/04/04 02:23:29;;;;;;;6.32;3.25;;;9.20;99.90;;;;;;4867494;29;20025;-84
2022/04/04 02:25:57;;;;;;;10.00;4.20;;;9.10;99.90;;;;;;4867457;29;20033;-84
2022/04/04 02:28:26;;;;;;;6.70;3.08;;;9.10;99.90;;;;;;4867296;29;20032;-84
2022/04/04 02:30:55;;;;;;;6.00;3.03;;;9.00;99.90;;;;;;4883620;29;20028;-84
2022/04/04 02:33:24;;;;;;;4.75;3.20;;;9.00;99.90;;;;;;4882848;29;20028;-84
2022/04/04 02:35:52;;;;;;;4.80;2.90;;;9.00;99.90;;;;;;4867566;29;20088;-84
2022/04/04 02:38:22;;;;;;;9.18;4.10;;;9.00;99.90;;;;;;4882904;29;20051;-84
2022/04/04 02:40:53;;;;;;;5.82;3.47;;;9.00;99.90;;;;;;4882939;29;20029;-84
2022/04/04 02:43:21;;;;;;;6.57;3.53;;;8.90;99.90;;;;;;4882631;29;20176;-84
2022/04/04 02:45:48;;;;;;;6.95;3.33;;;8.90;99.90;;;;;;4882782;29;20036;-83
2022/04/04 02:48:15;;;;;;;6.53;3.72;;;8.90;99.90;;;;;;4882375;29;20127;-83
2022/04/04 02:50:43;;;;;;;5.13;2.97;;;8.90;99.90;;;;;;4882792;29;20098;-84
2022/04/04 02:53:11;;;;;;;5.90;3.58;;;8.80;99.90;;;;;;4867154;29;20375;-84
2022/04/04 02:58:22;;;;;;;4.63;3.20;;;8.90;99.90;;;;;;4898314;29;20032;-84
2022/04/04 03:00:53;;;;;;;5.00;2.85;;;8.90;99.90;;;;;;4867003;29;20032;-84
2022/04/04 03:03:19;;;;;;;7.88;3.30;;;8.90;99.90;;;;;;4866741;29;20025;-84
2022/04/04 03:05:46;;;;;;;5.85;3.20;;;8.90;99.90;;;;;;4882885;29;20398;-84
2022/04/04 03:08:16;;;;;;;9.23;3.47;;;8.90;99.90;;;;;;4866761;29;20048;-84
2022/04/04 03:10:49;;;;;;;7.82;3.65;;;8.90;99.90;;;;;;4866861;29;20119;-84
2022/04/04 03:13:22;;;;;;;7.55;3.78;;;8.90;99.90;;;;;;4882341;29;20154;-84
2022/04/04 03:15:49;;;;;;;4.27;2.83;;;8.80;99.90;;;;;;4882419;29;20490;-84
2022/04/04 03:18:15;;;;;;;7.38;3.22;;;8.90;99.90;;;;;;4866697;29;20052;-84
2022/04/04 03:20:42;;;;;;;6.30;3.42;;;9.00;99.90;;;;;;4866810;29;20052;-83
2022/04/04 03:23:08;;;;;;;7.85;3.58;;;9.00;99.90;;;;;;4882183;29;20037;-84
2022/04/04 03:25:35;;;;;;;8.73;3.25;;;9.00;99.90;;;;;;4866776;29;20483;-84
2022/04/04 03:28:02;;;;;;;5.57;3.55;;;9.00;99.90;;;;;;4866396;29;20037;-84
2022/04/04 03:30:29;;;;;;;7.47;3.13;;;9.10;99.90;;;;;;4882020;29;20115;-84
2022/04/04 03:32:57;;;;;;;6.65;3.05;;;9.00;99.90;;;;;;4882655;29;20478;-84
2022/04/04 03:35:26;;;;;;;3.58;2.80;;;9.10;99.90;;;;;;4866789;29;20032;-84
2022/04/04 03:37:54;;;;;;;4.43;2.70;;;9.10;99.90;;;;;;4866753;29;20032;-84
2022/04/04 03:40:24;;;;;;;3.92;2.17;;;9.00;99.90;;;;;;4866477;29;20032;-84
2022/04/04 03:42:54;;;;;;;4.05;2.58;;;9.00;99.90;;;;;;4866696;29;20033;-84
2022/04/04 03:45:22;;;;;;;3.53;2.40;;;9.00;99.90;;;;;;4881868;29;20036;-85
2022/04/04 03:47:49;;;;;;;3.47;2.22;;;9.10;99.90;;;;;;4866658;29;20040;-85
2022/04/04 03:50:17;;;;;;;4.63;2.55;;;9.10;99.90;;;;;;4866548;29;20054;-85
2022/04/04 03:52:47;;;;;;;3.67;2.33;;;9.10;99.90;;;;;;4866504;29;20040;-86
2022/04/04 03:55:15;;;;;;;10.65;2.28;;;9.10;99.90;;;;;;4866540;29;20196;-81
2022/04/04 03:57:44;;;;;;;5.93;2.28;;;9.10;99.90;;;;;;4881596;29;20033;-82
2022/04/04 04:00:13;;;;;;;4.07;2.83;;;9.20;99.90;;;;;;4865917;29;20035;-82
2022/04/04 04:02:39;;;;;;;3.20;2.38;;;9.20;99.90;;;;;;4881325;29;20028;-83
2022/04/04 04:05:07;;;;;;;10.57;3.13;;;9.20;99.90;;;;;;4866430;29;20055;-83
2022/04/04 04:07:34;;;;;;;10.52;2.70;;;9.20;99.90;;;;;;4881576;29;20056;-84
2022/04/04 04:10:00;;;;;;;7.47;2.92;;;9.30;99.90;;;;;;4884950;29;20048;-84
2022/04/04 04:12:27;;;;;;;8.48;2.83;;;9.20;99.90;;;;;;4869907;29;20035;-85
2022/04/04 04:14:58;;;;;;;6.10;2.95;;;9.30;99.90;;;;;;4870070;29;20032;-83
2022/04/04 04:17:25;;;;;;;3.97;2.67;;;9.30;99.90;;;;;;4875188;29;20502;-84
2022/04/04 04:22:37;;;;;;;5.13;3.08;;;9.30;99.90;;;;;;4903564;29;20032;-84
2022/04/04 04:25:05;;;;;;;7.30;2.95;;;9.40;99.90;;;;;;4888183;29;20028;-84
2022/04/04 04:27:32;;;;;;;3.78;2.28;;;9.40;99.90;;;;;;4888091;29;20042;-83
2022/04/04 04:29:59;;;;;;;4.05;2.63;;;9.30;99.90;;;;;;4903809;29;20025;-85
2022/04/04 04:32:25;;;;;;;5.35;2.35;;;9.30;99.90;;;;;;4888427;29;20088;-85
2022/04/04 04:34:52;;;;;;;3.65;2.17;;;9.40;99.90;;;;;;4888270;29;20081;-86
2022/04/04 04:37:23;;;;;;;3.85;2.53;;;9.30;99.90;;;;;;4888131;29;20036;-84
2022/04/04 04:39:50;;;;;;;3.45;2.30;;;9.40;99.90;;;;;;4887990;29;20060;-85
2022/04/04 04:42:17;;;;;;;7.95;2.47;;;9.40;99.90;;;;;;4887876;29;20545;-83
2022/04/04 04:44:47;;;;;;;6.97;2.78;;;9.40;99.90;;;;;;4887826;29;20481;-83
2022/04/04 04:47:15;;;;;;;8.15;3.20;;;9.40;99.90;;;;;;4903698;29;20052;-83
2022/04/04 04:49:42;;;;;;;7.82;3.67;;;9.50;99.90;;;;;;4903187;29;20051;-84
2022/04/04 04:52:09;;;;;;;12.82;3.72;;;9.50;99.90;;;;;;4903556;29;20028;-84
2022/04/04 04:54:36;;;;;;;5.63;2.83;;;9.50;99.90;;;;;;4887795;29;20024;-84
2022/04/04 04:57:03;;;;;;;6.28;3.58;;;9.50;99.90;;;;;;4903473;29;20054;-85
2022/04/04 04:59:30;;;;;;;6.25;2.80;;;9.50;99.90;;;;;;4887840;29;20032;-84
2022/04/04 05:01:56;;;;;;;7.20;3.10;;;9.50;99.90;;;;;;4902908;29;20059;-83
2022/04/04 05:04:26;;;;;;;5.20;2.72;;;9.50;99.90;;;;;;4887248;29;20043;-83
2022/04/04 05:06:53;;;;;;;6.50;2.60;;;9.50;99.90;;;;;;4902662;29;20040;-83
2022/04/04 05:09:19;;;;;;;3.47;2.05;;;9.60;99.90;;;;;;4887648;29;20505;-86
2022/04/04 05:11:50;;;;;;;3.65;2.33;;;9.60;99.90;;;;;;4887949;29;20367;-85
2022/04/04 05:14:16;;;;;;;4.80;2.75;;;9.50;99.90;;;;;;4887413;29;20032;-86
2022/04/04 05:16:44;;;;;;;8.88;2.47;;;9.60;99.90;;;;;;4887171;29;20427;-85
2022/04/04 05:19:13;;;;;;;4.47;1.98;;;9.70;99.90;;;;;;4902900;29;20032;-85
2022/04/04 05:21:40;;;;;;;6.88;2.22;;;9.80;99.90;;;;;;4901904;29;20115;-84
2022/04/04 05:24:08;;;;;;;7.05;2.92;;;9.80;99.90;;;;;;4902441;29;20486;-83
2022/04/04 05:26:36;;;;;;;4.10;2.30;;;9.80;99.90;;;;;;4902159;29;20024;-88
2022/04/04 05:29:04;;;;;;;4.75;2.40;;;9.90;99.90;;;;;;4902734;29;20446;-83
2022/04/04 05:31:32;;;;;;;4.57;2.85;;;9.90;99.90;;;;;;4901702;29;20046;-84
2022/04/04 05:33:59;;;;;;;7.32;2.47;;;9.90;99.90;;;;;;4902339;29;20028;-83
2022/04/04 05:36:28;;;;;;;8.00;2.10;;;10.00;99.90;;;;;;4902542;29;20032;-83
2022/04/04 05:38:58;;;;;;;15.45;4.47;;;10.00;99.90;;;;;;4918026;29;20039;-83
2022/04/04 05:41:27;;;;;;;8.13;2.95;;;10.00;99.90;;;;;;4902225;29;20406;-84
2022/04/04 05:43:55;;;;;;;5.38;2.55;;;10.00;99.90;;;;;;4902073;29;20039;-84
2022/04/04 05:46:22;;;;;;;6.95;2.92;;;10.20;99.90;;;;;;4902195;29;20028;-84
2022/04/04 05:48:49;;;;;;;5.85;2.53;;;10.30;99.90;;;;;;4901952;29;20410;-82
2022/04/04 05:51:17;;;;;;;4.47;1.95;;;10.30;99.90;;;;;;4933459;29;20020;-83
2022/04/04 05:53:45;;;;;;;4.53;2.20;;;10.40;99.90;;;;;;4902157;29;20376;-84
2022/04/04 05:56:12;;;;;;;6.35;2.80;;;10.50;99.90;;;;;;4902068;29;20028;-85
2022/04/04 05:58:40;;;;;;;5.53;2.00;;;10.50;99.90;;;;;;4902157;29;20033;-83
2022/04/04 06:01:10;;;;;;;5.35;2.88;;;10.60;99.90;;;;;;4902238;29;20111;-84
2022/04/04 06:03:37;;;;;;;4.78;2.83;;;10.60;99.90;;;;;;4901911;29;20096;-85
2022/04/04 06:06:04;;;;;;;11.90;2.90;;;10.60;99.90;;;;;;4902029;29;20031;-84
2022/04/04 06:08:30;;;;;;;9.50;2.20;;;10.60;99.90;;;;;;4902321;29;20044;-84
2022/04/04 06:10:57;;;;;;;5.88;3.72;;;10.60;99.90;;;;;;4902300;29;20020;-84
2022/04/04 06:13:24;;;;;;;8.65;3.15;;;10.60;99.90;;;;;;4902250;29;20028;-84
2022/04/04 06:15:51;;;;;;;7.85;2.72;;;10.70;99.90;;;;;;4918669;29;20021;-84
2022/04/04 06:18:18;;;;;;;12.45;3.03;;;10.80;99.90;;;;;;4901592;29;20387;-84
2022/04/04 06:20:45;;;;;;;12.57;3.17;;;10.80;99.90;;;;;;4901622;29;20032;-84
2022/04/04 06:23:12;;;;;;;14.00;2.85;;;10.90;99.90;;;;;;4901734;29;20066;-84
2022/04/04 06:25:39;;;;;;;9.75;3.03;;;10.90;99.90;;;;;;4901625;29;20032;-84
2022/04/04 06:28:06;;;;;;;14.77;1.83;;;11.00;99.90;;;;;;4901262;29;20044;-84
2022/04/04 06:30:34;;;;;;;12.10;2.97;;;11.10;99.90;;;;;;4901458;29;20024;-83
2022/04/04 06:33:26;;;;;;;9.00;3.08;;;11.30;99.90;;;;;;4901343;29;20493;-84
2022/04/04 06:35:54;;;;;;;8.25;2.63;;;11.40;99.90;;;;;;4881987;29;20049;-83
2022/04/04 06:38:23;;;;;;;16.00;2.28;;;11.30;99.90;;;;;;4881525;29;20383;-82
2022/04/04 06:40:51;;;;;;;20.00;2.50;;;11.30;99.90;;;;;;4881890;29;20044;-84
2022/04/04 06:43:19;;;;;;;3.60;1.92;;;11.30;99.90;;;;;;4897423;29;20032;-83
2022/04/04 06:45:46;;;;;;;4.85;2.15;;;11.40;99.90;;;;;;4881698;29;20036;-83
2022/04/04 06:48:15;;;;;;;11.30;1.50;;;11.50;99.90;;;;;;4896997;29;20150;-85
2022/04/04 06:50:42;;;;;;;3.53;2.33;;;11.60;99.90;;;;;;4881656;29;20080;-83
2022/04/04 06:53:09;;;;;;;3.00;1.80;;;11.80;99.90;;;;;;4881018;29;20162;-82
2022/04/04 06:55:37;;;;;;;2.28;1.50;;;11.90;99.90;;;;;;4881010;29;20032;-82
2022/04/04 06:58:07;;;;;;;4.05;1.58;;;12.10;99.90;;;;;;4881824;29;20037;-84
2022/04/04 07:00:35;;;;;;;2.83;1.88;;;12.20;99.90;;;;;;4912843;29;20044;-84
2022/04/04 07:03:01;;;;;;;1.92;1.60;;;12.20;99.90;;;;;;4881311;29;20037;-83
2022/04/04 07:05:29;;;;;;;3.55;1.05;;;12.30;99.90;;;;;;4881201;29;20024;-83
2022/04/04 07:07:55;;;;;;;1.45;1.00;;;12.50;99.90;;;;;;4881525;29;20075;-83
2022/04/04 07:10:22;;;;;;;3.10;0.88;;;12.60;99.90;;;;;;4881458;29;20116;-83
2022/04/04 07:12:51;;;;;;;7.70;1.20;;;12.70;99.90;;;;;;4919070;29;20067;-84
2022/04/04 07:15:18;;;;;;;1.77;1.00;;;12.60;99.90;;;;;;4900748;29;20082;-83
2022/04/04 07:17:45;;;;;;;5.45;0.90;;;12.80;99.90;;;;;;4899738;29;20510;-81
2022/04/04 07:20:13;;;;;;;0.85;0.80;;;12.90;99.90;;;;;;4917812;29;20036;-85
2022/04/04 07:22:41;;;;;;;2.13;0.57;;;12.90;99.90;;;;;;4901136;29;20473;-84
2022/04/04 07:25:10;;;;;;;5.55;0.77;;;13.10;99.90;;;;;;4900807;29;20036;-84
2022/04/04 07:27:42;;;;;;;3.47;0.55;;;13.30;99.90;;;;;;4900874;29;20391;-84
2022/04/04 07:30:12;;;;;;;0.45;0.45;;;13.30;99.90;;;;;;4900650;29;20028;-84
2022/04/04 07:32:40;;;;;;;0.68;0.38;;;13.40;99.90;;;;;;4917586;29;20051;-84
2022/04/04 07:35:12;;;;;;;2.80;0.50;;;13.50;99.90;;;;;;4916062;29;20028;-83
2022/04/04 07:37:40;;;;;;;3.58;0.40;;;13.60;99.90;;;;;;4900208;29;20130;-81
2022/04/04 07:40:10;;;;;;;1.45;0.95;;;13.80;99.90;;;;;;4916934;29;20083;-82
2022/04/04 07:42:38;;;;;;;2.92;1.38;;;13.90;99.90;;;;;;4900584;29;20036;-83
2022/04/04 07:45:08;;;;;;;6.03;0.77;;;13.90;99.90;;;;;;4919863;29;20494;-83
2022/04/04 07:47:35;;;;;;;2.22;0.80;;;13.90;99.90;;;;;;4920734;29;20036;-82
2022/04/04 07:50:02;;;;;;;1.50;0.80;;;14.00;99.90;;;;;;4903911;29;20021;-83
2022/04/04 07:52:29;;;;;;;2.38;0.50;;;14.20;99.90;;;;;;4920688;29;20039;-81
2022/04/04 07:54:56;;;;;;;0.85;0.40;;;14.30;99.90;;;;;;4920775;29;20568;-81
2022/04/04 07:57:23;;;;;;;1.60;0.50;;;14.50;99.90;;;;;;4903553;29;20099;-80
2022/04/04 07:59:52;;;;;;;0.45;0.30;;;14.70;99.90;;;;;;4903444;29;20482;-80
2022/04/04 08:02:19;;;;;;;3.33;0.60;;;14.80;99.90;;;;;;4920733;29;20489;-81
2022/04/04 08:38:05;;;;;;;1.20;0.80;;;15.30;99.90;;;;;;5807823;23;20048;-91
2022/04/04 08:40:31;;;;;;;2.22;1.23;;;15.60;99.90;;;;;;4903606;29;20032;-91
2022/04/04 08:42:59;;;;;;;1.48;0.60;;;16.00;99.90;;;;;;4898534;29;20036;-92
2022/04/04 08:45:26;;;;;;;0.93;0.50;;;16.30;99.90;;;;;;4884849;29;20037;-91
2022/04/04 08:56:29;;;;;;;;;;;;;;;;;;;;;
2022/04/04 09:06:08;;;;;;;1.98;0.80;;;16.70;99.90;;;;;;4925482;23;22294;-94
2022/04/04 09:09:19;;;;;;;3.55;0.90;;;16.50;99.90;;;;;;4922760;23;20053;-94
2022/04/04 09:12:34;;;;;;;3.95;0.88;;;16.40;99.90;;;;;;4862447;29;20120;-93
2022/04/04 09:15:17;;;;;;;2.88;0.90;;;16.20;99.90;;;;;;4843655;29;20133;-93
2022/04/04 09:17:54;;;;;;;0.83;0.67;;;16.10;99.90;;;;;;4837858;29;20166;-93
2022/04/04 09:20:34;;;;;;;0.50;0.40;;;16.00;99.90;;;;;;4843729;29;20037;-94
2022/04/04 09:23:51;;;;;;;2.47;1.02;;;15.70;99.90;;;;;;4828731;29;20094;-93
2022/04/04 09:27:21;;;;;;;;;;;;;;;;;;;;;
2022/04/04 09:31:38;;;;;;;2.60;0.47;;;16.40;99.90;;;;;;4843587;29;20099;-94
2022/04/04 09:35:01;;;;;;;;;;;;;;;;;;;;;
2022/04/04 09:38:21;;;;;;;1.10;0.65;;;16.20;99.90;;;;;;4755665;30;20088;-92
2022/04/04 09:44:26;;;;;;;3.65;1.25;;;15.60;99.90;;;;;;4918066;29;20048;-94
2022/04/04 09:47:49;;;;;;;2.65;0.90;;;15.70;99.90;;;;;;4915571;29;20036;-93
2022/04/04 09:50:45;;;;;;;1.60;0.90;;;15.90;99.90;;;;;;4810139;29;20536;-94
2022/04/04 09:54:10;;;;;;;;;;;;;;;;;;;;;
2022/04/04 09:57:57;;;;;;;1.50;0.70;;;15.90;99.90;;;;;;4825122;29;20117;-93
2022/04/04 10:04:09;;;;;;;3.67;0.75;;;16.60;99.90;;;;;;4803663;29;20042;-94
2022/04/04 10:07:05;;;;;;;5.68;0.50;;;16.60;99.90;;;;;;4812072;29;20073;-91
2022/04/04 10:09:32;;;;;;;2.97;0.75;;;16.40;99.90;;;;;;4812412;29;20057;-91
2022/04/04 10:11:59;;;;;;;1.77;0.93;;;16.30;99.90;;;;;;4808893;29;20034;-93
2022/04/04 10:14:26;;;;;;;1.55;0.40;;;16.30;99.90;;;;;;4810646;29;20065;-93
2022/04/04 10:16:54;;;;;;;1.20;0.30;;;16.20;99.90;;;;;;4809178;29;20113;-94
2022/04/04 10:19:21;;;;;;;1.25;0.43;;;16.30;99.90;;;;;;4815289;29;20033;-92
2022/04/04 10:21:48;;;;;;;0.55;0.52;;;16.20;99.90;;;;;;4827753;29;20481;-92
2022/04/04 10:24:15;;;;;;;0.47;0.40;;;16.10;99.90;;;;;;4827220;29;20113;-92
2022/04/04 10:26:44;;;;;;;0.75;0.40;;;16.10;99.90;;;;;;4840671;29;20127;-94
2022/04/04 10:29:16;;;;;;;3.22;0.82;;;16.30;99.90;;;;;;4864041;29;20052;-92
2022/04/04 10:31:48;;;;;;;4.40;0.88;;;16.30;99.90;;;;;;4863671;29;20040;-92
2022/04/04 10:34:22;;;;;;;4.32;0.90;;;16.30;99.90;;;;;;4867294;29;20048;-93
2022/04/04 10:36:56;;;;;;;4.38;0.60;;;16.30;99.90;;;;;;4879934;29;20029;-91
2022/04/04 10:39:48;;;;;;;3.15;0.73;;;16.10;99.90;;;;;;4880990;29;20049;-91
2022/04/04 10:42:34;;;;;;;1.60;0.63;;;15.90;99.90;;;;;;4879716;29;20065;-92
2022/04/04 10:45:09;;;;;;;3.83;0.35;;;15.80;99.90;;;;;;4880105;29;20045;-92
2022/04/04 10:47:38;;;;;;;3.25;0.57;;;15.60;99.90;;;;;;4882470;29;20456;-92
2022/04/04 10:50:33;;;;;;;3.25;0.55;;;15.60;99.90;;;;;;4879513;29;20060;-92
2022/04/04 10:53:00;;;;;;;;;;;15.40;99.90;;;;;;4880025;29;20043;-91
2022/04/04 10:55:43;;;;;;;2.33;0.52;;;15.50;99.90;;;;;;4865814;29;19907;-90
2022/04/04 10:58:15;;;;;;;1.88;0.40;;;15.50;99.90;;;;;;4880015;29;20037;-92
2022/04/04 11:01:07;;;;;;;0.73;0.70;;;15.50;99.90;;;;;;4864610;29;20029;-92
2022/04/04 11:03:35;;;;;;;4.25;0.70;;;15.30;99.90;;;;;;4882428;29;20060;-92
2022/04/04 11:09:18;;;;;;;1.05;0.47;;;15.20;99.90;;;;;;4879344;29;20671;-92
2022/04/04 11:11:54;;;;;;;4.32;0.70;;;15.10;99.90;;;;;;4879390;29;20078;-92
2022/04/04 11:14:27;;;;;;;0.50;0.50;;;15.10;99.90;;;;;;4880429;29;20444;-91
2022/04/04 11:17:09;;;;;;;4.43;0.60;;;15.10;99.90;;;;;;4863862;29;20029;-93
2022/04/04 11:19:48;;;;;;;6.00;0.95;;;15.10;99.90;;;;;;4884668;29;20040;-91
2022/04/04 11:22:23;;;;;;;3.92;1.20;;;15.20;99.90;;;;;;4883279;29;20043;-92
2022/04/04 11:25:03;;;;;;;2.72;0.50;;;15.10;99.90;;;;;;4883267;29;20037;-91
2022/04/04 11:27:33;;;;;;;0.30;0.30;;;15.10;99.90;;;;;;4885511;29;20065;-91
2022/04/04 11:30:20;;;;;;;0.93;0.55;;;15.10;99.90;;;;;;4883043;29;20029;-91
2022/04/04 11:32:49;;;;;;;1.60;0.43;;;15.10;99.90;;;;;;4886173;29;20128;-93
2022/04/04 11:35:30;;;;;;;1.08;0.80;;;15.10;99.90;;;;;;4886194;29;20036;-93
2022/04/04 11:37:59;;;;;;;1.50;0.30;;;15.20;99.90;;;;;;4883408;29;20033;-92
2022/04/04 11:40:34;;;;;;;1.75;0.55;;;15.20;99.90;;;;;;4885355;29;20033;-92
2022/04/04 11:43:08;;;;;;;1.52;0.82;;;15.00;99.90;;;;;;4883183;29;20056;-92
2022/04/04 11:45:36;;;;;;;0.88;0.60;;;15.00;99.90;;;;;;4870722;29;20029;-92
2022/04/04 11:48:06;;;;;;;2.45;1.08;;;15.10;99.90;;;;;;4884963;29;20476;-92
2022/04/04 11:50:34;;;;;;;2.28;0.90;;;15.00;99.90;;;;;;4887512;29;20448;-92
2022/04/04 11:53:03;;;;;;;0.30;0.30;;;15.00;99.90;;;;;;4883715;29;20068;-92
2022/04/04 11:55:32;;;;;;;4.75;0.50;;;15.00;99.90;;;;;;4885278;29;20120;-93
2022/04/04 11:58:02;;;;;;;1.27;0.50;;;14.90;99.90;;;;;;4883844;29;20069;-90
2022/04/04 12:00:32;;;;;;;1.55;0.35;;;15.10;99.90;;;;;;4885335;29;20061;-92
2022/04/04 12:03:13;;;;;;;1.45;0.63;;;15.10;99.90;;;;;;4883653;29;20041;-93
2022/04/04 12:05:47;;;;;;;1.05;0.35;;;15.10;99.90;;;;;;4883727;29;20112;-92
2022/04/04 12:08:15;;;;;;;1.25;0.85;;;15.00;99.90;;;;;;4883380;29;20414;-90
2022/04/04 12:10:43;;;;;;;1.30;0.50;;;15.00;99.90;;;;;;4866895;29;20060;-91
2022/04/04 12:13:11;;;;;;;1.55;0.57;;;15.00;99.90;;;;;;4883511;29;20056;-90
2022/04/04 12:15:42;;;;;;;0.65;0.45;;;14.90;99.90;;;;;;4882366;29;20029;-93
2022/04/04 12:18:09;;;;;;;3.15;0.50;;;14.80;99.90;;;;;;4882382;29;20036;-91
2022/04/04 12:20:41;;;;;;;5.00;0.55;;;14.70;99.90;;;;;;4885041;29;20033;-92
2022/04/04 12:26:08;;;;;;;4.25;0.70;;;14.40;99.90;;;;;;4882421;29;20029;-91
2022/04/04 12:28:52;;;;;;;6.20;0.53;;;14.50;99.90;;;;;;4884951;29;20045;-94
2022/04/04 12:31:24;;;;;;;0.90;0.43;;;14.40;99.90;;;;;;4866712;29;20127;-92
2022/04/04 12:34:09;;;;;;;2.70;0.52;;;14.40;99.90;;;;;;4881930;29;20120;-91
2022/04/04 12:36:38;;;;;;;5.38;2.20;;;14.50;99.90;;;;;;4884777;29;20031;-93
2022/04/04 12:39:24;;;;;;;1.42;0.50;;;14.60;99.90;;;;;;4881940;29;20031;-91
2022/04/04 12:41:56;;;;;;;4.55;0.63;;;14.80;99.90;;;;;;4881806;29;20486;-91
2022/04/04 12:44:54;;;;;;;2.70;0.73;;;14.80;99.90;;;;;;4883427;29;20044;-91
2022/04/04 12:47:23;;;;;;;2.83;0.95;;;14.80;99.90;;;;;;4868023;29;20048;-90
2022/04/04 12:50:09;;;;;;;1.52;1.33;;;14.90;99.90;;;;;;4881680;29;20033;-90
2022/04/04 12:52:54;;;;;;;2.15;0.50;;;14.80;99.90;;;;;;4885017;29;20033;-92
2022/04/04 12:55:40;;;;;;;3.25;0.75;;;15.00;99.90;;;;;;4883135;29;20143;-91
2022/04/04 12:58:26;;;;;;;4.63;0.43;;;15.10;99.90;;;;;;4881678;29;20037;-91
2022/04/04 13:00:53;;;;;;;4.57;0.68;;;15.10;99.90;;;;;;4881487;29;20057;-91
2022/04/04 13:03:27;;;;;;;4.20;0.80;;;15.00;99.90;;;;;;4882488;29;20555;-90
2022/04/04 13:05:57;;;;;;;3.65;0.57;;;15.10;99.90;;;;;;4881799;29;20092;-92
2022/04/04 13:08:26;;;;;;;5.72;0.73;;;15.10;99.90;;;;;;4882773;29;20555;-89
2022/04/04 13:11:10;;;;;;;1.67;0.35;;;15.00;99.90;;;;;;4866037;29;20476;-90
2022/04/04 13:14:05;;;;;;;3.08;1.05;;;15.10;99.90;;;;;;4884247;29;20040;-93
2022/04/04 13:16:36;;;;;;;3.13;0.93;;;15.10;99.90;;;;;;4883889;29;20096;-91
2022/04/04 13:19:07;;;;;;;9.25;1.70;;;15.10;99.90;;;;;;4881579;29;20037;-90
2022/04/04 13:21:38;;;;;;;2.28;0.60;;;15.10;99.90;;;;;;4883813;29;20033;-90
2022/04/04 13:24:09;;;;;;;2.75;0.63;;;15.10;99.90;;;;;;4881199;29;20041;-92
2022/04/04 13:26:36;;;;;;;3.55;0.88;;;15.20;99.90;;;;;;4883917;29;20044;-91
2022/04/04 13:29:09;;;;;;;3.35;0.85;;;15.20;99.90;;;;;;4881375;29;20044;-92
2022/04/04 13:31:37;;;;;;;3.10;0.85;;;15.10;99.90;;;;;;4884371;29;20029;-91
2022/04/04 13:34:04;;;;;;;3.63;1.13;;;15.20;99.90;;;;;;4865632;29;20073;-91
2022/04/04 13:36:30;;;;;;;2.65;0.65;;;15.30;99.90;;;;;;4883393;29;20417;-91
2022/04/04 13:38:58;;;;;;;1.23;0.60;;;15.20;99.90;;;;;;4880906;29;20029;-90
2022/04/04 13:41:32;;;;;;;2.55;1.17;;;15.10;99.90;;;;;;4881475;29;20514;-90
2022/04/04 13:43:59;;;;;;;5.78;0.73;;;15.10;99.90;;;;;;4880800;29;20189;-91
2022/04/04 13:46:28;;;;;;;1.13;0.55;;;15.20;99.90;;;;;;4882429;29;20044;-91
2022/04/04 13:49:02;;;;;;;2.88;0.82;;;15.00;99.90;;;;;;4881320;29;20048;-90
2022/04/04 13:51:29;;;;;;;2.10;0.47;;;15.10;99.90;;;;;;4882611;29;20402;-91
2022/04/04 13:53:59;;;;;;;1.80;0.60;;;15.10;99.90;;;;;;4881097;29;20498;-91
2022/04/04 13:56:27;;;;;;;0.40;0.40;;;15.10;99.90;;;;;;4882453;29;20036;-90
2022/04/04 13:58:54;;;;;;;1.60;0.70;;;14.90;99.90;;;;;;4881025;29;20112;-91
2022/04/04 14:01:23;;;;;;;5.28;0.88;;;15.00;99.90;;;;;;4883514;29;20578;-91
2022/04/04 14:03:51;;;;;;;3.00;1.13;;;15.10;99.90;;;;;;4883864;29;20036;-90
2022/04/04 14:06:18;;;;;;;5.25;1.70;;;15.10;99.90;;;;;;4881244;29;20483;-92
2022/04/04 14:08:44;;;;;;;1.52;1.08;;;15.10;99.90;;;;;;4880920;29;20120;-91
2022/04/04 14:11:13;;;;;;;1.52;0.77;;;15.00;99.90;;;;;;4880369;29;20052;-91
2022/04/04 14:13:48;;;;;;;7.68;1.50;;;15.00;99.90;;;;;;4880352;29;20037;-91
2022/04/04 14:16:15;;;;;;;4.10;1.27;;;15.10;99.90;;;;;;4880293;29;20033;-91
2022/04/04 14:18:41;;;;;;;3.85;1.58;;;14.90;99.90;;;;;;4880026;29;20431;-90
2022/04/04 14:21:08;;;;;;;2.67;0.90;;;14.80;99.90;;;;;;4880297;29;20484;-91
2022/04/04 14:23:37;;;;;;;2.35;0.65;;;14.80;99.90;;;;;;4882860;29;20029;-88
2022/04/04 14:26:07;;;;;;;3.40;0.63;;;14.60;99.90;;;;;;4880132;29;20032;-90
2022/04/04 14:28:34;;;;;;;2.88;1.00;;;14.60;99.90;;;;;;4882415;29;20040;-90